createdAt,value
2018-02-08T00:00:10.109Z,33.05
2018-02-08T00:02:36.303Z,32.65
2018-02-08T00:05:02.519Z,33.20
2018-02-08T00:07:29.447Z,33.72
2018-02-08T00:09:56.380Z,34.78
2018-02-08T00:12:22.581Z,35.65
2018-02-08T00:14:48.784Z,34.85
2018-02-08T00:17:14.932Z,34.45
2018-02-08T00:19:41.093Z,36.72
2018-02-08T00:22:07.319Z,34.15
2018-02-08T00:24:33.513Z,34.92
2018-02-08T00:26:59.721Z,38.30
2018-02-08T00:29:25.881Z,38.38
2018-02-08T00:31:52.462Z,34.17
2018-02-08T00:34:19.379Z,34.05
2018-02-08T00:36:45.549Z,32.00
2018-02-08T00:39:11.708Z,33.40
2018-02-08T00:41:38.170Z,35.33
2018-02-08T00:44:04.371Z,36.50
2018-02-08T00:46:30.584Z,34.55
2018-02-08T00:48:56.754Z,32.08
2018-02-08T00:51:23.326Z,36.20
2018-02-08T00:53:50.240Z,34.42
2018-02-08T00:56:16.445Z,35.40
2018-02-08T00:58:43.359Z,34.88
2018-02-08T01:01:09.550Z,35.45
2018-02-08T01:03:35.746Z,35.75
2018-02-08T01:06:01.961Z,35.72
2018-02-08T01:08:28.120Z,35.55
2018-02-08T01:10:54.273Z,35.75
2018-02-08T01:13:21.220Z,34.55
2018-02-08T01:15:48.190Z,36.42
2018-02-08T01:18:14.758Z,35.65
2018-02-08T01:20:40.947Z,33.85
2018-02-08T01:23:07.870Z,37.10
2018-02-08T01:25:34.049Z,34.50
2018-02-08T01:28:00.244Z,34.78
2018-02-08T01:30:27.218Z,33.38
2018-02-08T01:32:53.379Z,35.00
2018-02-08T01:35:19.553Z,32.58
2018-02-08T01:37:45.718Z,32.75
2018-02-08T01:40:11.935Z,36.50
2018-02-08T01:42:38.106Z,33.90
2018-02-08T01:45:04.296Z,35.08
2018-02-08T01:47:30.480Z,34.40
2018-02-08T01:49:57.435Z,35.80
2018-02-08T01:52:24.314Z,33.47
2018-02-08T01:54:50.541Z,33.88
2018-02-08T01:57:16.722Z,35.80
2018-02-08T01:59:43.606Z,35.45
2018-02-08T02:02:09.789Z,36.05
2018-02-08T02:04:36.677Z,32.75
2018-02-08T02:07:02.930Z,33.03
2018-02-08T02:09:29.123Z,35.90
2018-02-08T02:11:55.315Z,32.53
2018-02-08T02:14:22.969Z,31.67
2018-02-08T02:16:49.162Z,36.55
2018-02-08T02:19:15.353Z,33.53
2018-02-08T02:21:42.296Z,36.20
2018-02-08T02:24:09.208Z,33.60
2018-02-08T02:26:35.382Z,35.15
2018-02-08T02:29:01.565Z,35.17
2018-02-08T02:31:27.787Z,36.03
2018-02-08T02:33:53.974Z,35.13
2018-02-08T02:36:20.137Z,33.70
2018-02-08T02:38:46.313Z,34.47
2018-02-08T02:41:13.230Z,34.38
2018-02-08T02:43:39.425Z,34.95
2018-02-08T02:46:05.598Z,35.60
2018-02-08T02:48:31.783Z,36.45
2018-02-08T02:50:57.917Z,36.55
2018-02-08T02:53:24.068Z,34.78
2018-02-08T02:55:50.281Z,34.90
2018-02-08T02:58:16.417Z,33.03
2018-02-08T03:00:42.651Z,32.90
2018-02-08T03:03:08.862Z,32.88
2018-02-08T03:05:35.017Z,33.42
2018-02-08T03:08:01.186Z,34.50
2018-02-08T03:10:27.381Z,35.42
2018-02-08T03:12:54.302Z,34.75
2018-02-08T03:15:20.502Z,33.30
2018-02-08T03:17:46.649Z,32.80
2018-02-08T03:20:12.834Z,33.75
2018-02-08T03:22:39.044Z,37.80
2018-02-08T03:25:05.970Z,35.45
2018-02-08T03:27:32.882Z,36.63
2018-02-08T03:29:59.059Z,36.42
2018-02-08T03:32:25.650Z,34.60
2018-02-08T03:34:51.817Z,34.88
2018-02-08T03:37:17.984Z,37.25
2018-02-08T03:39:44.101Z,36.35
2018-02-08T03:42:10.308Z,34.63
2018-02-08T03:44:37.599Z,36.88
2018-02-08T03:47:04.194Z,36.70
2018-02-08T03:49:30.403Z,37.60
2018-02-08T03:51:56.549Z,37.95
2018-02-08T03:54:22.774Z,37.65
2018-02-08T03:56:49.002Z,40.70
2018-02-08T03:59:15.183Z,36.58
2018-02-08T04:01:41.345Z,40.60
2018-02-08T04:04:07.499Z,40.15
2018-02-08T04:06:34.369Z,37.13
2018-02-08T04:09:00.586Z,38.72
2018-02-08T04:11:26.753Z,37.97
2018-02-08T04:13:52.952Z,37.70
2018-02-08T04:16:19.164Z,40.20
2018-02-08T04:18:46.087Z,36.67
2018-02-08T04:21:12.199Z,38.63
2018-02-08T04:23:38.381Z,38.72
2018-02-08T04:26:04.585Z,42.40
2018-02-08T04:28:31.466Z,42.58
2018-02-08T04:30:57.682Z,38.97
2018-02-08T04:33:23.849Z,39.10
2018-02-08T04:35:50.869Z,40.15
2018-02-08T04:38:17.142Z,39.25
2018-02-08T04:40:55.967Z,39.45
2018-02-08T04:43:34.485Z,39.83
2018-02-08T04:46:12.915Z,39.78
2018-02-08T04:48:39.083Z,40.42
2018-02-08T04:51:05.331Z,39.38
2018-02-08T04:53:31.528Z,40.42
2018-02-08T04:55:57.707Z,40.45
2018-02-08T04:58:23.873Z,38.88
2018-02-08T05:00:50.821Z,41.60
2018-02-08T05:03:17.756Z,39.88
2018-02-08T05:05:44.651Z,40.95
2018-02-08T05:08:10.795Z,41.30
2018-02-08T05:10:36.957Z,42.60
2018-02-08T05:13:03.165Z,37.97
2018-02-08T05:15:29.320Z,38.13
2018-02-08T05:17:56.220Z,40.75
2018-02-08T05:20:22.374Z,39.28
2018-02-08T05:22:49.313Z,39.08
2018-02-08T05:25:15.522Z,38.20
2018-02-08T05:27:41.731Z,40.70
2018-02-08T05:30:07.955Z,41.05
2018-02-08T05:32:35.061Z,38.75
2018-02-08T05:35:02.764Z,39.00
2018-02-08T05:37:29.008Z,42.50
2018-02-08T05:39:55.190Z,38.15
2018-02-08T05:42:22.070Z,39.75
2018-02-08T05:44:48.647Z,41.95
2018-02-08T05:47:14.818Z,40.83
2018-02-08T05:49:41.006Z,39.97
2018-02-08T05:52:07.173Z,40.33
2018-02-08T05:54:33.369Z,40.47
2018-02-08T05:57:00.347Z,38.03
2018-02-08T05:59:27.610Z,41.35
2018-02-08T06:01:53.788Z,40.08
2018-02-08T06:04:20.777Z,40.38
2018-02-08T06:06:46.973Z,38.80
2018-02-08T06:09:13.920Z,37.17
2018-02-08T06:11:40.857Z,40.92
2018-02-08T06:14:07.026Z,43.38
2018-02-08T06:16:33.357Z,42.90
2018-02-08T06:19:00.615Z,39.47
2018-02-08T06:21:26.778Z,38.60
2018-02-08T06:23:52.948Z,39.15
2018-02-08T06:26:19.878Z,38.67
2018-02-08T06:28:46.818Z,37.38
2018-02-08T06:31:13.002Z,40.08
2018-02-08T06:33:39.192Z,37.28
2018-02-08T06:36:06.127Z,39.40
2018-02-08T06:38:33.026Z,37.95
2018-02-08T06:40:59.186Z,40.65
2018-02-08T06:43:25.374Z,40.42
2018-02-08T06:45:51.521Z,38.92
2018-02-08T06:48:18.069Z,38.92
2018-02-08T06:50:44.621Z,39.60
2018-02-08T06:53:11.146Z,38.85
2018-02-08T06:55:37.381Z,41.05
2018-02-08T06:58:03.557Z,39.50
2018-02-08T07:00:29.799Z,37.67
2018-02-08T07:02:56.337Z,39.05
2018-02-08T07:05:22.878Z,38.92
2018-02-08T07:07:49.378Z,40.97
2018-02-08T07:10:15.641Z,38.80
2018-02-08T07:12:42.206Z,40.25
2018-02-08T07:15:08.390Z,40.22
2018-02-08T07:17:35.303Z,39.42
2018-02-08T07:20:02.299Z,38.00
2018-02-08T07:22:29.605Z,39.70
2018-02-08T07:25:02.830Z,37.33
2018-02-08T07:27:29.035Z,40.35
2018-02-08T07:29:55.982Z,37.78
2018-02-08T07:32:22.887Z,42.38
2018-02-08T07:34:49.090Z,38.45
2018-02-08T07:37:15.295Z,39.33
2018-02-08T07:39:41.456Z,37.50
2018-02-08T07:42:08.012Z,35.35
2018-02-08T07:44:34.228Z,39.25
2018-02-08T07:47:00.430Z,38.47
2018-02-08T07:49:27.349Z,38.55
2018-02-08T07:51:54.429Z,37.95
2018-02-08T07:54:22.222Z,35.95
2018-02-08T07:56:48.824Z,38.20
2018-02-08T07:59:15.388Z,35.72
2018-02-08T08:01:41.527Z,35.40
2018-02-08T08:04:07.689Z,38.22
2018-02-08T08:06:34.274Z,38.97
2018-02-08T08:09:00.528Z,37.15
2018-02-08T08:11:26.714Z,37.63
2018-02-08T08:13:52.901Z,39.35
2018-02-08T08:16:19.078Z,36.95
2018-02-08T08:18:45.990Z,38.65
2018-02-08T08:21:12.906Z,40.67
2018-02-08T08:23:39.117Z,37.20
2018-02-08T08:26:06.211Z,38.08
2018-02-08T08:28:33.100Z,38.85
2018-02-08T08:30:59.304Z,38.17
2018-02-08T08:33:25.477Z,39.53
2018-02-08T08:35:51.664Z,35.55
2018-02-08T08:38:17.807Z,37.10
2018-02-08T08:40:44.357Z,38.58
2018-02-08T08:43:10.579Z,35.33
2018-02-08T08:45:36.731Z,38.92
2018-02-08T08:48:03.314Z,37.33
2018-02-08T08:50:29.591Z,35.67
2018-02-08T08:52:55.802Z,38.97
2018-02-08T08:55:21.974Z,35.72
2018-02-08T08:57:49.002Z,36.53
2018-02-08T09:00:15.230Z,37.22
2018-02-08T09:02:41.421Z,36.75
2018-02-08T09:05:07.944Z,38.37
2018-02-08T09:07:34.146Z,37.90
2018-02-08T09:10:01.074Z,36.67
2018-02-08T09:12:27.227Z,37.03
2018-02-08T09:14:54.155Z,38.00
2018-02-08T09:17:20.317Z,35.60
2018-02-08T09:19:46.483Z,39.20
2018-02-08T09:22:12.628Z,37.60
2018-02-08T09:24:38.874Z,37.93
2018-02-08T09:27:05.813Z,37.60
2018-02-08T09:29:32.007Z,38.50
2018-02-08T09:31:58.194Z,35.77
2018-02-08T09:34:24.362Z,39.80
2018-02-08T09:36:50.551Z,37.33
2018-02-08T09:39:16.701Z,38.07
2018-02-08T09:41:42.887Z,38.47
2018-02-08T09:44:09.034Z,36.17
2018-02-08T09:46:35.217Z,37.10
2018-02-08T09:49:01.410Z,39.67
2018-02-08T09:51:27.603Z,39.13
2018-02-08T09:53:54.486Z,37.40
2018-02-08T09:56:20.664Z,39.60
2018-02-08T09:58:46.889Z,38.73
2018-02-08T10:01:13.068Z,40.10
2018-02-08T10:03:39.249Z,40.60
2018-02-08T10:06:05.451Z,39.70
2018-02-08T10:08:31.593Z,40.90
2018-02-08T10:10:58.076Z,39.47
2018-02-08T10:13:24.232Z,36.10
2018-02-08T10:15:50.435Z,40.90
2018-02-08T10:18:16.618Z,41.30
2018-02-08T10:20:42.839Z,36.17
2018-02-08T10:23:08.999Z,37.10
2018-02-08T10:25:36.283Z,38.30
2018-02-08T10:28:02.475Z,38.27
2018-02-08T10:30:29.366Z,38.90
2018-02-08T10:32:56.649Z,40.83
2018-02-08T10:35:22.860Z,40.60
2018-02-08T10:37:49.040Z,38.87
2018-02-08T10:40:15.974Z,38.63
2018-02-08T10:42:42.863Z,40.00
2018-02-08T10:45:09.040Z,40.23
2018-02-08T10:47:36.386Z,39.70
2018-02-08T10:50:02.965Z,41.83
2018-02-08T10:52:29.878Z,36.60
2018-02-08T10:54:57.537Z,38.83
2018-02-08T10:57:24.062Z,38.67
2018-02-08T10:59:51.012Z,38.30
2018-02-08T11:02:17.193Z,37.53
2018-02-08T11:04:43.383Z,41.30
2018-02-08T11:07:10.268Z,38.13
2018-02-08T11:09:36.429Z,39.60
2018-02-08T11:12:04.097Z,40.70
2018-02-08T11:14:30.269Z,43.40
2018-02-08T11:16:56.454Z,42.10
2018-02-08T11:19:22.614Z,38.50
2018-02-08T11:21:48.778Z,38.67
2018-02-08T11:24:14.996Z,40.40
2018-02-08T11:26:41.221Z,39.80
2018-02-08T11:29:07.443Z,39.33
2018-02-08T11:31:33.708Z,39.10
2018-02-08T11:34:00.618Z,40.70
2018-02-08T11:36:26.793Z,40.67
2018-02-08T11:38:52.953Z,40.60
2018-02-08T11:41:19.628Z,39.40
2018-02-08T11:43:45.809Z,39.63
2018-02-08T11:46:12.774Z,41.27
2018-02-08T11:48:39.697Z,40.70
2018-02-08T11:51:06.226Z,38.13
2018-02-08T11:53:33.143Z,34.67
2018-02-08T11:55:59.293Z,37.10
2018-02-08T11:58:26.202Z,38.40
2018-02-08T12:00:52.356Z,38.93
2018-02-08T12:03:18.536Z,34.77
2018-02-08T12:05:45.096Z,38.60
2018-02-08T12:08:11.296Z,38.70
2018-02-08T12:10:37.470Z,39.07
2018-02-08T12:13:03.675Z,41.20
2018-02-08T12:15:29.851Z,38.43
2018-02-08T12:17:56.025Z,35.07
2018-02-08T12:20:22.205Z,43.53
2018-02-08T12:22:48.371Z,38.30
2018-02-08T12:25:14.537Z,41.37
2018-02-08T12:27:40.742Z,44.87
2018-02-08T12:30:06.961Z,41.40
2018-02-08T12:32:33.129Z,39.13
2018-02-08T12:34:59.311Z,41.90
2018-02-08T12:37:25.491Z,39.10
2018-02-08T12:39:51.714Z,39.90
2018-02-08T12:42:17.919Z,37.67
2018-02-08T12:44:44.546Z,39.87
2018-02-08T12:47:11.141Z,39.80
2018-02-08T12:49:37.414Z,40.87
2018-02-08T12:52:03.630Z,39.80
2018-02-08T12:54:29.834Z,41.67
2018-02-08T12:56:56.870Z,38.00
2018-02-08T12:59:23.760Z,42.20
2018-02-08T13:01:49.971Z,42.30
2018-02-08T13:04:17.074Z,41.50
2018-02-08T13:06:44.019Z,40.80
2018-02-08T13:09:10.220Z,39.87
2018-02-08T13:11:36.345Z,43.60
2018-02-08T13:14:02.558Z,39.70
2018-02-08T13:16:29.628Z,41.60
2018-02-08T13:18:55.814Z,41.03
2018-02-08T13:21:22.755Z,40.20
2018-02-08T13:23:49.758Z,40.27
2018-02-08T13:26:16.392Z,41.60
2018-02-08T13:28:42.646Z,43.07
2018-02-08T13:31:08.812Z,41.90
2018-02-08T13:33:35.766Z,41.40
2018-02-08T13:36:03.206Z,40.83
2018-02-08T13:38:29.816Z,40.83
2018-02-08T13:40:56.015Z,40.13
2018-02-08T13:43:22.190Z,41.43
2018-02-08T13:45:48.403Z,38.90
2018-02-08T13:48:14.625Z,40.97
2018-02-08T13:53:55.843Z,41.27
2018-02-08T13:56:28.101Z,40.20
2018-02-08T13:59:00.727Z,40.37
2018-02-08T14:01:38.784Z,41.50
2018-02-08T14:04:05.060Z,42.03
2018-02-08T14:06:31.229Z,41.73
2018-02-08T14:08:57.460Z,40.37
2018-02-08T14:11:24.012Z,40.20
2018-02-08T14:13:50.523Z,42.93
2018-02-08T14:16:16.708Z,41.17
2018-02-08T14:18:43.629Z,39.33
2018-02-08T14:21:11.380Z,40.70
2018-02-08T14:23:38.665Z,39.67
2018-02-08T14:26:20.517Z,42.03
2018-02-08T14:28:46.682Z,38.70
2018-02-08T14:31:13.613Z,40.30
2018-02-08T14:33:39.813Z,40.80
2018-02-08T14:36:06.081Z,42.73
2018-02-08T14:38:33.437Z,42.60
2018-02-08T14:41:00.429Z,38.40
2018-02-08T14:43:26.654Z,39.17
2018-02-08T14:45:52.994Z,39.37
2018-02-08T14:48:19.242Z,40.80
2018-02-08T14:50:46.562Z,42.57
2018-02-08T14:53:12.839Z,40.40
2018-02-08T14:55:39.878Z,39.70
2018-02-08T14:58:06.101Z,40.97
2018-02-08T15:00:33.601Z,39.40
2018-02-08T15:03:00.595Z,39.33
2018-02-08T15:05:26.778Z,41.70
2018-02-08T15:07:53.693Z,40.93
2018-02-08T15:10:21.380Z,39.43
2018-02-08T15:12:48.341Z,43.97
2018-02-08T15:15:14.910Z,40.93
2018-02-08T15:17:41.073Z,40.13
2018-02-08T15:20:07.624Z,40.03
2018-02-08T15:22:33.795Z,40.43
2018-02-08T15:25:00.795Z,40.23
2018-02-08T15:27:26.982Z,43.53
2018-02-08T15:29:53.172Z,43.17
2018-02-08T15:32:20.106Z,41.10
2018-02-08T15:34:47.001Z,42.33
2018-02-08T15:37:13.571Z,41.93
2018-02-08T15:39:41.232Z,41.20
2018-02-08T15:42:07.443Z,40.70
2018-02-08T15:44:33.644Z,39.37
2018-02-08T15:46:59.857Z,46.37
2018-02-08T15:49:26.071Z,43.20
2018-02-08T15:51:53.997Z,43.37
2018-02-08T15:54:20.922Z,41.53
2018-02-08T15:56:47.128Z,43.23
2018-02-08T15:59:13.293Z,41.90
2018-02-08T16:01:39.454Z,42.57
2018-02-08T16:04:05.659Z,41.90
2018-02-08T16:06:31.882Z,40.33
2018-02-08T16:08:58.090Z,45.23
2018-02-08T16:11:24.278Z,41.47
2018-02-08T16:13:51.187Z,43.37
2018-02-08T16:16:17.465Z,41.73
2018-02-08T16:18:43.729Z,42.97
2018-02-08T16:21:11.809Z,43.17
2018-02-08T16:23:38.033Z,41.90
2018-02-08T16:26:05.578Z,40.90
2018-02-08T16:28:31.718Z,41.60
2018-02-08T16:30:57.930Z,42.92
2018-02-08T16:33:24.119Z,43.67
2018-02-08T16:35:51.118Z,39.85
2018-02-08T16:38:17.291Z,41.67
2018-02-08T16:40:43.481Z,43.33
2018-02-08T16:43:09.733Z,43.00
2018-02-08T16:45:36.024Z,40.53
2018-02-08T16:48:02.226Z,41.47
2018-02-08T16:50:29.197Z,43.67
2018-02-08T16:52:55.404Z,41.97
2018-02-08T16:55:21.842Z,45.38
2018-02-08T16:57:49.152Z,40.65
2018-02-08T17:00:15.323Z,42.75
2018-02-08T17:02:41.560Z,42.22
2018-02-08T17:05:07.792Z,42.78
2018-02-08T17:07:34.357Z,42.45
2018-02-08T17:10:00.632Z,17.73
2018-02-08T17:12:26.821Z,21.23
2018-02-08T17:14:53.065Z,23.87
2018-02-08T17:17:19.251Z,25.57
2018-02-08T17:19:45.494Z,39.63
2018-02-08T17:22:11.650Z,44.80
2018-02-08T17:24:38.048Z,44.73
2018-02-08T17:27:04.317Z,44.90
2018-02-08T17:29:30.520Z,42.13
2018-02-08T17:31:56.735Z,41.90
2018-02-08T17:34:22.947Z,44.42
2018-02-08T17:36:49.102Z,43.15
2018-02-08T17:39:15.304Z,41.50
2018-02-08T17:41:41.540Z,45.50
2018-02-08T17:44:07.714Z,42.62
2018-02-08T17:46:33.923Z,47.13
2018-02-08T17:49:00.183Z,46.37
2018-02-08T17:51:26.414Z,43.90
2018-02-08T17:53:52.619Z,43.42
2018-02-08T17:56:18.923Z,42.15
2018-02-08T17:58:45.399Z,44.08
2018-02-08T18:01:12.399Z,40.47
2018-02-08T18:03:39.481Z,42.58
2018-02-08T18:06:05.731Z,43.17
2018-02-08T18:08:31.992Z,44.22
2018-02-08T18:10:58.200Z,42.20
2018-02-08T18:13:25.182Z,43.87
2018-02-08T18:15:51.376Z,44.65
2018-02-08T18:18:18.406Z,46.35
2018-02-08T18:20:45.018Z,42.20
2018-02-08T18:23:11.287Z,43.85
2018-02-08T18:25:37.478Z,44.63
2018-02-08T18:28:03.675Z,43.03
2018-02-08T18:30:29.895Z,44.50
2018-02-08T18:32:56.847Z,41.05
2018-02-08T18:35:23.081Z,23.17
2018-02-08T18:37:49.450Z,22.85
2018-02-08T18:40:15.711Z,42.00
2018-02-08T18:42:42.020Z,43.67
2018-02-08T18:45:08.223Z,42.95
2018-02-08T18:47:34.466Z,42.40
2018-02-08T18:50:00.668Z,42.53
2018-02-08T18:52:26.966Z,39.03
2018-02-08T18:54:53.868Z,42.95
2018-02-08T18:57:20.469Z,40.70
2018-02-08T18:59:46.693Z,42.25
2018-02-08T19:02:12.930Z,42.55
2018-02-08T19:04:39.137Z,45.63
2018-02-08T19:07:06.126Z,43.03
2018-02-08T19:09:32.290Z,41.10
2018-02-08T19:11:58.452Z,42.45
2018-02-08T19:14:25.399Z,44.80
2018-02-08T19:16:52.385Z,44.42
2018-02-08T19:19:20.232Z,44.30
2018-02-08T19:21:46.534Z,41.42
2018-02-08T19:24:13.681Z,43.80
2018-02-08T19:26:39.953Z,43.10
2018-02-08T19:29:06.178Z,42.38
2018-02-08T19:31:32.361Z,41.75
2018-02-08T19:33:59.736Z,41.22
2018-02-08T19:36:26.667Z,40.40
2018-02-08T19:38:53.982Z,40.05
2018-02-08T19:41:20.234Z,43.38
2018-02-08T19:43:46.443Z,40.95
2018-02-08T19:46:12.712Z,42.83
2018-02-08T19:48:40.652Z,42.20
2018-02-08T19:51:06.870Z,43.03
2018-02-08T19:53:33.830Z,45.00
2018-02-08T19:56:00.077Z,44.88
2018-02-08T19:58:27.029Z,41.95
2018-02-08T20:00:53.605Z,42.67
2018-02-08T20:03:19.768Z,42.78
2018-02-08T20:05:46.325Z,38.85
2018-02-08T20:08:16.197Z,39.28
2018-02-08T20:10:42.831Z,41.63
2018-02-08T20:13:09.029Z,41.10
2018-02-08T20:15:35.330Z,40.90
2018-02-08T20:18:01.516Z,39.72
2018-02-08T20:20:28.056Z,40.00
2018-02-08T20:22:55.625Z,39.67
2018-02-08T20:25:27.877Z,39.60
2018-02-08T20:27:54.143Z,42.90
2018-02-08T20:30:20.323Z,31.80
2018-02-08T20:32:47.278Z,31.98
2018-02-08T20:35:14.208Z,36.08
2018-02-08T20:37:43.515Z,39.58
2018-02-08T20:40:20.858Z,38.67
2018-02-08T20:42:53.511Z,37.65
2018-02-08T20:45:19.711Z,37.80
2018-02-08T20:47:45.980Z,42.50
2018-02-08T20:50:12.924Z,37.60
2018-02-08T20:52:39.174Z,38.60
2018-02-08T20:55:05.441Z,41.47
2018-02-08T20:57:32.095Z,39.58
2018-02-08T20:59:58.648Z,39.28
2018-02-08T21:02:25.570Z,37.65
2018-02-08T21:04:51.790Z,41.35
2018-02-08T21:07:18.380Z,41.08
2018-02-08T21:09:44.629Z,38.08
2018-02-08T21:12:10.814Z,36.67
2018-02-08T21:14:36.972Z,38.30
2018-02-08T21:17:03.363Z,37.47
2018-02-08T21:19:29.937Z,41.05
2018-02-08T21:21:56.157Z,41.10
2018-02-08T21:24:23.111Z,41.45
2018-02-08T21:26:49.291Z,41.00
2018-02-08T21:29:16.260Z,40.42
2018-02-08T21:31:43.172Z,41.40
2018-02-08T21:34:10.109Z,41.88
2018-02-08T21:36:37.042Z,39.33
2018-02-08T21:39:03.246Z,39.80
2018-02-08T21:41:29.413Z,40.08
2018-02-08T21:43:55.986Z,39.33
2018-02-08T21:46:22.944Z,39.80
2018-02-08T21:48:49.119Z,39.40
2018-02-08T21:51:16.054Z,39.17
2018-02-08T21:53:42.251Z,39.13
2018-02-08T21:56:08.503Z,38.50
2018-02-08T21:58:35.051Z,37.10
2018-02-08T22:01:01.630Z,38.70
2018-02-08T22:03:28.181Z,36.83
2018-02-08T22:05:54.321Z,38.05
2018-02-08T22:08:20.544Z,42.50
2018-02-08T22:10:47.088Z,38.30
2018-02-08T22:13:13.293Z,38.42
2018-02-08T22:15:39.847Z,36.83
2018-02-08T22:18:06.806Z,39.05
2018-02-08T22:20:32.960Z,39.83
2018-02-08T22:23:00.643Z,40.38
2018-02-08T22:25:27.191Z,38.42
2018-02-08T22:27:54.158Z,39.67
2018-02-08T22:30:20.350Z,39.63
2018-02-08T22:32:47.264Z,38.55
2018-02-08T22:35:14.574Z,42.47
2018-02-08T22:37:40.762Z,41.05
2018-02-08T22:40:07.319Z,38.53
2018-02-08T22:42:33.516Z,40.12
2018-02-08T22:44:59.690Z,37.67
2018-02-08T22:47:25.881Z,40.55
2018-02-08T22:49:52.102Z,41.40
2018-02-08T22:52:18.297Z,38.25
2018-02-08T22:54:44.866Z,39.45
2018-02-08T22:57:11.083Z,39.90
2018-02-08T22:59:37.285Z,39.15
2018-02-08T23:02:04.566Z,37.95
2018-02-08T23:04:30.764Z,37.85
2018-02-08T23:06:56.971Z,36.78
2018-02-08T23:09:23.140Z,40.55
2018-02-08T23:11:49.362Z,39.33
2018-02-08T23:14:15.557Z,39.13
2018-02-08T23:16:41.757Z,39.25
2018-02-08T23:19:07.955Z,38.17
2018-02-08T23:21:34.126Z,40.38
2018-02-08T23:24:01.043Z,40.58
2018-02-08T23:26:28.719Z,38.90
2018-02-08T23:28:55.640Z,41.33
2018-02-08T23:31:22.207Z,37.25
2018-02-08T23:33:49.112Z,38.25
2018-02-08T23:36:16.024Z,40.83
2018-02-08T23:38:42.375Z,38.88
2018-02-08T23:41:08.561Z,39.80
2018-02-08T23:43:35.454Z,38.70
2018-02-08T23:46:02.400Z,40.65
2018-02-08T23:48:28.565Z,38.72
2018-02-08T23:50:56.230Z,38.13
2018-02-08T23:53:22.422Z,38.85
2018-02-08T23:55:48.945Z,41.17
2018-02-08T23:58:16.222Z,39.72
